Time;durP1;ratioP1;P1;durP2;ratioP2;P2;SDS_P1;SDS_P2;PMS_P1;PMS_P2;Temp;Humidity;BMP_temperature;BMP_pressure;BME280_temperature;BME280_humidity;BME280_pressure;Samples;Min_cycle;Max_cycle;Signal;HPM_P1;HPM_P2
2021/12/19 00:09:54;;;;;;;12.50;5.40;;;7.30;99.90;;;;;;5084436;28;20056;-58
2021/12/19 00:12:20;;;;;;;15.32;4.70;;;7.30;99.90;;;;;;5084083;28;20051;-58
2021/12/19 00:14:46;;;;;;;11.25;4.15;;;7.30;99.90;;;;;;5083820;28;20044;-58
2021/12/19 00:17:11;;;;;;;10.27;3.47;;;7.20;99.90;;;;;;5084491;28;20062;-58
2021/12/19 00:19:37;;;;;;;7.57;3.00;;;7.20;99.90;;;;;;5082137;28;20051;-58
2021/12/19 00:22:03;;;;;;;8.98;2.42;;;7.20;99.90;;;;;;5066314;28;20170;-59
2021/12/19 00:24:29;;;;;;;6.53;1.63;;;7.20;99.90;;;;;;5079547;28;20047;-58
2021/12/19 00:26:55;;;;;;;6.75;2.22;;;7.20;99.90;;;;;;5080813;28;20131;-58
2021/12/19 00:29:21;;;;;;;5.63;1.60;;;7.20;99.90;;;;;;5081300;28;20029;-59
2021/12/19 00:31:48;;;;;;;4.72;1.50;;;7.20;99.90;;;;;;5081179;28;20046;-58
2021/12/19 00:34:15;;;;;;;4.80;1.40;;;7.20;99.90;;;;;;5080122;28;20037;-58
2021/12/19 00:36:42;;;;;;;6.90;1.65;;;7.20;99.90;;;;;;5080715;28;20040;-58
2021/12/19 00:39:08;;;;;;;6.75;1.55;;;7.10;99.90;;;;;;5079591;28;20451;-58
2021/12/19 00:41:36;;;;;;;7.95;1.73;;;7.10;99.90;;;;;;5080485;28;20044;-58
2021/12/19 00:44:10;;;;;;;4.80;1.42;;;7.10;99.90;;;;;;5080758;28;20125;-59
2021/12/19 00:46:53;;;;;;;8.43;2.08;;;7.10;99.90;;;;;;5080935;28;20477;-58
2021/12/19 00:49:25;;;;;;;7.47;1.63;;;7.10;99.90;;;;;;5064391;28;20412;-58
2021/12/19 00:51:51;;;;;;;7.22;1.40;;;7.00;99.90;;;;;;5095795;28;20052;-59
2021/12/19 00:54:17;;;;;;;3.63;1.05;;;7.00;99.90;;;;;;5095478;28;20110;-58
2021/12/19 00:56:45;;;;;;;3.28;0.73;;;6.90;99.90;;;;;;5080697;28;20049;-58
2021/12/19 00:59:12;;;;;;;3.38;0.80;;;6.90;99.90;;;;;;5080515;28;20059;-59
2021/12/19 01:01:38;;;;;;;4.53;1.02;;;6.90;99.90;;;;;;5080329;28;20523;-58
2021/12/19 01:04:10;;;;;;;3.53;0.90;;;7.00;99.90;;;;;;5079504;28;20055;-58
2021/12/19 01:06:37;;;;;;;;;;;7.00;99.90;;;;;;5080416;28;20401;-58
2021/12/19 01:09:04;;;;;;;6.22;1.38;;;7.00;99.90;;;;;;5080573;28;19920;-58
2021/12/19 01:11:30;;;;;;;3.80;1.65;;;6.90;99.90;;;;;;5079565;28;20033;-59
2021/12/19 01:13:56;;;;;;;3.97;1.23;;;7.00;99.90;;;;;;5078708;28;20078;-59
2021/12/19 01:16:22;;;;;;;4.63;1.25;;;6.90;99.90;;;;;;5080115;28;20123;-59
2021/12/19 01:18:48;;;;;;;4.07;1.52;;;7.00;99.90;;;;;;5079596;28;20415;-58
2021/12/19 01:21:14;;;;;;;5.85;1.00;;;7.00;99.90;;;;;;5080573;28;20043;-58
2021/12/19 01:23:40;;;;;;;4.00;1.00;;;6.90;99.90;;;;;;5078384;28;20112;-58
2021/12/19 01:26:06;;;;;;;4.32;0.93;;;6.90;99.90;;;;;;5078840;28;20087;-58
2021/12/19 01:28:32;;;;;;;3.58;0.90;;;6.90;99.90;;;;;;5079431;28;20123;-58
2021/12/19 01:30:58;;;;;;;3.78;1.08;;;6.90;99.90;;;;;;5078900;28;20045;-59
2021/12/19 01:33:24;;;;;;;5.30;1.17;;;6.90;99.90;;;;;;5079760;28;20072;-58
2021/12/19 01:35:49;;;;;;;3.33;1.00;;;6.90;99.90;;;;;;5078206;28;20048;-58
2021/12/19 01:38:15;;;;;;;3.60;1.05;;;6.90;99.90;;;;;;5079917;28;20044;-58
2021/12/19 01:40:41;;;;;;;4.88;1.30;;;6.90;99.90;;;;;;5078065;28;20095;-58
2021/12/19 01:43:07;;;;;;;5.97;1.30;;;6.90;99.90;;;;;;5079295;28;20062;-58
2021/12/19 01:45:36;;;;;;;5.30;1.58;;;7.00;99.90;;;;;;5079200;28;20037;-57
2021/12/19 01:48:09;;;;;;;5.20;1.25;;;6.90;99.90;;;;;;5079595;28;20044;-58
2021/12/19 01:50:36;;;;;;;5.38;1.83;;;7.00;99.90;;;;;;5084944;28;20051;-58
2021/12/19 01:53:04;;;;;;;8.05;2.20;;;7.00;99.90;;;;;;5099578;28;20093;-58
2021/12/19 01:55:31;;;;;;;8.35;2.10;;;7.00;99.90;;;;;;5084809;28;20353;-58
2021/12/19 01:57:57;;;;;;;8.75;1.92;;;6.90;99.90;;;;;;5077430;28;20047;-58
2021/12/19 02:00:30;;;;;;;8.00;2.05;;;7.00;99.90;;;;;;5079512;28;20557;-58
2021/12/19 02:02:57;;;;;;;6.93;1.90;;;7.00;99.90;;;;;;5077021;28;20052;-58
2021/12/19 02:05:25;;;;;;;4.35;1.00;;;7.00;99.90;;;;;;5077853;28;20428;-58
2021/12/19 02:07:51;;;;;;;4.72;0.93;;;6.90;99.90;;;;;;5078774;28;20044;-58
2021/12/19 02:10:19;;;;;;;5.78;1.10;;;6.80;99.90;;;;;;5078897;28;20055;-58
2021/12/19 02:12:47;;;;;;;5.45;0.95;;;6.60;99.90;;;;;;5077756;28;20083;-59
2021/12/19 02:15:20;;;;;;;5.57;1.20;;;6.60;99.90;;;;;;5078652;28;20045;-59
2021/12/19 02:17:47;;;;;;;5.63;1.05;;;6.60;99.90;;;;;;5078840;28;20064;-58
2021/12/19 02:20:15;;;;;;;6.55;1.35;;;6.60;99.90;;;;;;5078387;28;20051;-59
2021/12/19 02:22:41;;;;;;;4.05;0.95;;;6.60;99.90;;;;;;5078854;28;20048;-58
2021/12/19 02:25:08;;;;;;;6.15;1.00;;;6.60;99.90;;;;;;5078568;28;20048;-58
2021/12/19 02:27:33;;;;;;;6.60;1.25;;;6.60;99.90;;;;;;5077204;28;20056;-58
2021/12/19 02:29:59;;;;;;;4.72;1.05;;;6.60;99.90;;;;;;5078849;28;20041;-58
2021/12/19 02:32:28;;;;;;;10.60;1.55;;;6.70;99.90;;;;;;5078174;28;20463;-57
2021/12/19 02:34:56;;;;;;;8.90;1.45;;;6.70;99.90;;;;;;5078712;28;20037;-58
2021/12/19 02:37:55;;;;;;;5.20;0.80;;;6.60;99.90;;;;;;5059850;28;20052;-59
2021/12/19 02:48:18;;;;;;;5.65;1.20;;;6.50;99.90;;;;;;5078369;28;20455;-58
2021/12/19 02:50:51;;;;;;;6.65;1.20;;;6.50;99.90;;;;;;5083597;28;20032;-58
2021/12/19 02:53:30;;;;;;;5.13;1.20;;;6.50;99.90;;;;;;5098612;28;20044;-59
2021/12/19 02:55:56;;;;;;;3.03;0.90;;;6.50;99.90;;;;;;5079768;28;20050;-58
2021/12/19 02:58:22;;;;;;;6.22;0.88;;;6.50;99.90;;;;;;5076418;28;20040;-58
2021/12/19 03:00:49;;;;;;;4.53;0.80;;;6.50;99.90;;;;;;5078117;28;20060;-58
2021/12/19 03:03:15;;;;;;;4.50;0.95;;;6.60;99.90;;;;;;5077370;28;20133;-58
2021/12/19 03:05:41;;;;;;;7.20;1.23;;;6.50;99.90;;;;;;5078187;28;20429;-58
2021/12/19 03:08:08;;;;;;;5.40;1.17;;;6.50;99.90;;;;;;5076807;28;20052;-58
2021/12/19 03:18:35;;;;;;;7.65;1.27;;;6.50;99.90;;;;;;5077738;28;20037;-58
2021/12/19 03:21:01;;;;;;;6.10;1.10;;;6.50;99.90;;;;;;5078157;28;20434;-58
2021/12/19 03:23:27;;;;;;;4.80;1.48;;;6.50;99.90;;;;;;5077657;28;20051;-57
2021/12/19 03:25:53;;;;;;;5.38;1.33;;;6.50;99.90;;;;;;5078094;28;20079;-58
2021/12/19 03:28:19;;;;;;;5.97;1.60;;;6.50;99.90;;;;;;5077390;28;20040;-57
2021/12/19 03:30:46;;;;;;;7.60;1.80;;;6.60;99.90;;;;;;5076446;28;20504;-59
2021/12/19 03:33:13;;;;;;;6.90;1.55;;;6.60;99.90;;;;;;5076282;28;20075;-58
2021/12/19 03:35:40;;;;;;;7.45;1.20;;;6.60;99.90;;;;;;5076236;28;20925;-58
2021/12/19 03:38:08;;;;;;;4.47;0.80;;;6.60;99.90;;;;;;5077898;28;20029;-58
2021/12/19 03:40:36;;;;;;;8.35;1.00;;;6.60;99.90;;;;;;5076015;28;20489;-58
2021/12/19 03:43:08;;;;;;;4.22;0.80;;;6.60;99.90;;;;;;5077759;28;20191;-58
2021/12/19 03:45:35;;;;;;;3.35;0.60;;;6.70;99.90;;;;;;5077302;28;20843;-58
2021/12/19 03:48:04;;;;;;;4.65;1.00;;;6.60;99.90;;;;;;5077519;28;20055;-58
2021/12/19 03:50:32;;;;;;;7.38;1.10;;;6.70;99.90;;;;;;5082335;28;20044;-58
2021/12/19 03:52:59;;;;;;;6.25;1.27;;;6.60;99.90;;;;;;5079875;28;20536;-58
2021/12/19 03:55:26;;;;;;;6.22;1.30;;;6.60;99.90;;;;;;5082576;28;20409;-58
2021/12/19 03:57:53;;;;;;;5.40;1.40;;;6.60;99.90;;;;;;5078767;28;20044;-58
2021/12/19 04:00:25;;;;;;;9.32;2.00;;;6.70;99.90;;;;;;5081493;28;20049;-58
2021/12/19 04:02:54;;;;;;;12.45;2.58;;;6.70;99.90;;;;;;5080391;28;20143;-58
2021/12/19 04:05:20;;;;;;;8.45;2.20;;;6.70;99.90;;;;;;5081398;28;20071;-59
2021/12/19 04:07:46;;;;;;;9.32;2.25;;;6.60;99.90;;;;;;5079533;28;20044;-58
2021/12/19 04:10:11;;;;;;;10.10;2.03;;;6.70;99.90;;;;;;5081061;28;20063;-58
2021/12/19 04:12:37;;;;;;;9.27;1.88;;;6.80;99.90;;;;;;5080021;28;20072;-58
2021/12/19 04:15:05;;;;;;;11.60;2.78;;;6.80;99.90;;;;;;5080366;28;20080;-60
2021/12/19 04:17:31;;;;;;;14.65;2.40;;;6.80;99.90;;;;;;5081199;28;20407;-59
2021/12/19 04:19:57;;;;;;;12.18;2.42;;;6.80;99.90;;;;;;5080297;28;20044;-58
2021/12/19 04:22:23;;;;;;;15.90;2.88;;;6.80;99.90;;;;;;5079527;28;20072;-58
2021/12/19 04:24:48;;;;;;;13.77;2.60;;;6.80;99.90;;;;;;5080573;28;20048;-58
2021/12/19 04:27:14;;;;;;;11.48;2.70;;;6.90;99.90;;;;;;5079436;28;20054;-58
2021/12/19 04:29:40;;;;;;;10.68;3.00;;;6.90;99.90;;;;;;5081168;28;20097;-58
2021/12/19 04:32:11;;;;;;;13.55;3.60;;;6.90;99.90;;;;;;5080516;28;20059;-58
2021/12/19 04:34:37;;;;;;;13.68;3.42;;;6.90;99.90;;;;;;5080883;28;20078;-58
2021/12/19 04:37:12;;;;;;;14.20;3.75;;;6.90;99.90;;;;;;5079958;28;20052;-58
2021/12/19 04:39:55;;;;;;;14.50;4.18;;;6.80;99.90;;;;;;5080830;28;20567;-58
2021/12/19 04:53:35;;;;;;;17.10;4.90;;;6.90;99.90;;;;;;5100402;28;20077;-57
2021/12/19 04:58:54;;;;;;;18.83;5.07;;;6.90;99.90;;;;;;5078457;28;20508;-58
2021/12/19 05:04:08;;;;;;;15.27;4.93;;;6.90;99.90;;;;;;5080126;28;20135;-58
2021/12/19 05:15:11;;;;;;;18.45;7.05;;;7.00;99.90;;;;;;5017149;28;20057;-57
2021/12/19 05:17:37;;;;;;;18.50;8.75;;;7.00;99.90;;;;;;5001150;28;20050;-58
2021/12/19 05:20:11;;;;;;;20.10;8.43;;;7.00;99.90;;;;;;5045329;28;20044;-58
2021/12/19 05:22:45;;;;;;;22.85;7.60;;;7.00;99.90;;;;;;5078452;28;20066;-58
2021/12/19 05:25:14;;;;;;;15.90;7.63;;;7.00;99.90;;;;;;5079966;28;20052;-58
2021/12/19 05:27:54;;;;;;;21.23;7.18;;;7.00;99.90;;;;;;5079648;28;20059;-58
2021/12/19 05:30:20;;;;;;;18.92;6.95;;;7.00;99.90;;;;;;5078692;28;20040;-57
2021/12/19 05:32:49;;;;;;;22.70;7.82;;;7.00;99.90;;;;;;5079143;28;20040;-58
2021/12/19 05:35:22;;;;;;;19.58;7.10;;;7.00;99.90;;;;;;5079698;28;20051;-58
2021/12/19 05:46:02;;;;;;;15.98;4.85;;;7.00;99.90;;;;;;5078907;28;20186;-58
2021/12/19 05:48:27;;;;;;;17.98;5.13;;;7.00;99.90;;;;;;5079353;28;20439;-58
2021/12/19 05:50:53;;;;;;;19.92;5.22;;;7.00;99.90;;;;;;5087544;28;20086;-58
2021/12/19 05:53:19;;;;;;;20.63;4.65;;;7.00;99.90;;;;;;5099287;28;20116;-58
2021/12/19 05:55:45;;;;;;;15.18;6.15;;;7.00;99.90;;;;;;5080979;28;20044;-59
2021/12/19 05:58:11;;;;;;;15.60;4.25;;;7.00;99.90;;;;;;5078609;28;20049;-58
2021/12/19 06:00:37;;;;;;;14.07;5.10;;;6.90;99.90;;;;;;5077988;28;20112;-59
2021/12/19 06:03:04;;;;;;;24.58;5.60;;;7.00;99.90;;;;;;5078328;28;20088;-59
2021/12/19 06:05:30;;;;;;;16.60;5.60;;;7.00;99.90;;;;;;5078738;28;20067;-58
2021/12/19 06:07:55;;;;;;;16.65;6.38;;;7.00;99.90;;;;;;5079074;28;20809;-58
2021/12/19 06:10:22;;;;;;;19.10;6.03;;;7.00;99.90;;;;;;5078664;28;20044;-58
2021/12/19 06:12:49;;;;;;;17.95;5.80;;;6.90;99.90;;;;;;5077856;28;20083;-59
2021/12/19 06:15:15;;;;;;;17.70;6.50;;;6.90;99.90;;;;;;5077582;28;20072;-59
2021/12/19 06:17:44;;;;;;;27.25;6.20;;;6.90;99.90;;;;;;5079079;28;20053;-59
2021/12/19 06:20:11;;;;;;;19.13;5.45;;;6.90;99.90;;;;;;5078246;28;20049;-59
2021/12/19 06:22:38;;;;;;;17.05;4.75;;;6.90;99.90;;;;;;5078466;28;20102;-58
2021/12/19 06:25:04;;;;;;;23.50;5.85;;;6.90;99.90;;;;;;5078928;28;20073;-59
2021/12/19 06:27:30;;;;;;;20.98;5.15;;;6.90;99.90;;;;;;5077314;28;20045;-58
2021/12/19 06:29:56;;;;;;;23.60;5.22;;;7.00;99.90;;;;;;5079331;28;20076;-59
2021/12/19 06:32:22;;;;;;;13.10;4.30;;;6.90;99.90;;;;;;5078356;28;20052;-59
2021/12/19 06:34:48;;;;;;;7.45;2.72;;;6.90;99.90;;;;;;5078895;28;20040;-58
2021/12/19 06:37:13;;;;;;;10.02;2.30;;;6.90;99.90;;;;;;5078413;28;20045;-59
2021/12/19 06:39:40;;;;;;;10.57;2.80;;;7.00;99.90;;;;;;5077262;28;20040;-59
2021/12/19 06:42:07;;;;;;;13.73;2.40;;;7.00;99.90;;;;;;5078755;28;20625;-58
2021/12/19 06:44:34;;;;;;;14.73;2.47;;;6.90;99.90;;;;;;5076812;28;20064;-59
2021/12/19 06:47:01;;;;;;;9.73;2.70;;;6.90;99.90;;;;;;5077709;28;20044;-58
2021/12/19 06:49:27;;;;;;;15.60;2.88;;;6.90;99.90;;;;;;5077993;28;20056;-58
2021/12/19 06:51:54;;;;;;;13.45;3.30;;;6.90;99.90;;;;;;5093809;28;20055;-59
2021/12/19 06:54:20;;;;;;;11.55;2.90;;;6.90;99.90;;;;;;5090980;28;20060;-59
2021/12/19 06:56:46;;;;;;;10.70;2.33;;;6.90;99.90;;;;;;5078517;28;20052;-58
2021/12/19 06:59:12;;;;;;;14.05;3.10;;;6.90;99.90;;;;;;5076694;28;20071;-60
2021/12/19 07:01:39;;;;;;;15.00;3.03;;;6.80;99.90;;;;;;5059689;28;20049;-58
2021/12/19 07:04:05;;;;;;;13.20;2.22;;;6.90;99.90;;;;;;5078299;28;20083;-58
2021/12/19 07:06:35;;;;;;;14.85;3.03;;;6.90;99.90;;;;;;5077344;28;20060;-59
2021/12/19 07:09:02;;;;;;;13.50;3.03;;;6.90;99.90;;;;;;5077075;28;20394;-59
2021/12/19 07:11:28;;;;;;;13.73;2.50;;;6.90;99.90;;;;;;5077441;28;20487;-59
2021/12/19 07:13:53;;;;;;;14.90;3.10;;;6.90;99.90;;;;;;5076324;28;20036;-58
2021/12/19 07:16:19;;;;;;;13.70;3.00;;;6.90;99.90;;;;;;5077778;28;20134;-58
2021/12/19 07:18:46;;;;;;;12.38;3.13;;;6.80;99.90;;;;;;5076660;28;20045;-59
2021/12/19 07:21:14;;;;;;;13.55;3.05;;;6.90;99.90;;;;;;5077333;28;20078;-59
2021/12/19 07:23:40;;;;;;;16.02;3.47;;;6.90;99.90;;;;;;5077812;28;20051;-59
2021/12/19 07:26:05;;;;;;;15.48;3.13;;;6.90;99.90;;;;;;5077933;28;20049;-59
2021/12/19 07:28:34;;;;;;;16.67;3.85;;;6.90;99.90;;;;;;5059514;28;20101;-60
2021/12/19 07:31:01;;;;;;;10.23;3.08;;;6.90;99.90;;;;;;5078055;28;20071;-59
2021/12/19 07:33:26;;;;;;;15.13;3.45;;;6.90;99.90;;;;;;5079135;28;20045;-60
2021/12/19 07:35:53;;;;;;;13.63;3.30;;;7.00;99.90;;;;;;5081941;28;20052;-59
2021/12/19 07:38:27;;;;;;;15.20;2.95;;;6.90;99.90;;;;;;5080832;28;20068;-59
2021/12/19 07:40:54;;;;;;;16.40;2.88;;;6.90;99.90;;;;;;5081343;28;20056;-59
2021/12/19 07:43:21;;;;;;;15.00;2.97;;;6.90;99.90;;;;;;5078016;28;20179;-59
2021/12/19 07:45:47;;;;;;;23.17;3.90;;;6.90;99.90;;;;;;5076756;28;20086;-59
2021/12/19 07:48:13;;;;;;;16.73;3.50;;;7.00;99.90;;;;;;5078437;28;20040;-59
2021/12/19 07:50:39;;;;;;;16.38;3.35;;;6.90;99.90;;;;;;5084744;28;20073;-59
2021/12/19 07:53:04;;;;;;;19.23;3.50;;;7.00;99.90;;;;;;5098639;28;20052;-59
2021/12/19 07:55:31;;;;;;;13.52;3.38;;;7.00;99.90;;;;;;5083607;28;20040;-60
2021/12/19 07:57:57;;;;;;;16.90;3.70;;;7.00;99.90;;;;;;5077817;28;20060;-59
2021/12/19 08:00:23;;;;;;;17.83;3.13;;;7.00;99.90;;;;;;5078628;28;20041;-59
2021/12/19 08:02:49;;;;;;;15.52;3.28;;;7.00;99.90;;;;;;5075940;28;20139;-59
2021/12/19 08:05:17;;;;;;;14.18;3.13;;;7.00;99.90;;;;;;5078061;28;20388;-59
2021/12/19 08:07:46;;;;;;;14.82;2.72;;;7.00;99.90;;;;;;5078199;28;20044;-59
2021/12/19 08:11:39;;;;;;;11.75;2.97;;;7.10;99.90;;;;;;5077791;28;20508;-59
2021/12/19 08:13:00;;;;;;;13.77;3.08;;;7.10;99.90;;;;;;5077945;28;20060;-59
2021/12/19 08:15:26;;;;;;;13.38;3.10;;;7.00;99.90;;;;;;5077392;28;20041;-59
2021/12/19 08:17:51;;;;;;;12.90;2.83;;;7.10;99.90;;;;;;5077668;28;20063;-59
2021/12/19 08:20:17;;;;;;;16.33;3.40;;;7.00;99.90;;;;;;5059146;28;20048;-59
2021/12/19 08:22:48;;;;;;;17.63;4.07;;;7.10;99.90;;;;;;5076370;28;20048;-59
2021/12/19 08:25:14;;;;;;;16.17;3.35;;;7.10;99.90;;;;;;5076600;28;20082;-59
2021/12/19 08:27:40;;;;;;;16.08;3.00;;;7.00;99.90;;;;;;5077541;28;20044;-58
2021/12/19 08:30:09;;;;;;;15.50;3.08;;;7.10;99.90;;;;;;5060006;28;20056;-59
2021/12/19 08:32:36;;;;;;;17.48;3.50;;;7.10;99.90;;;;;;5076956;28;20416;-59
2021/12/19 08:35:02;;;;;;;14.85;2.92;;;7.10;99.90;;;;;;5077754;28;20050;-59
2021/12/19 08:37:28;;;;;;;15.20;2.92;;;7.00;99.90;;;;;;5077143;28;20040;-58
2021/12/19 08:39:55;;;;;;;12.63;3.20;;;7.10;99.90;;;;;;5077127;28;20108;-59
2021/12/19 08:42:21;;;;;;;16.10;2.97;;;7.10;99.90;;;;;;5076152;28;20096;-59
2021/12/19 08:44:46;;;;;;;12.82;3.47;;;7.10;99.90;;;;;;5073874;28;20088;-58
2021/12/19 08:47:12;;;;;;;13.80;2.95;;;7.10;99.90;;;;;;5077582;28;20135;-59
2021/12/19 08:49:40;;;;;;;13.30;2.40;;;7.10;99.90;;;;;;5075355;28;20087;-59
2021/12/19 08:52:06;;;;;;;10.70;2.65;;;7.00;99.90;;;;;;5094019;28;20068;-59
2021/12/19 08:54:32;;;;;;;16.15;3.05;;;7.10;99.90;;;;;;5090036;28;20049;-59
2021/12/19 08:56:58;;;;;;;12.95;2.05;;;7.10;99.90;;;;;;5076675;28;20054;-59
2021/12/19 08:59:26;;;;;;;10.68;2.17;;;7.10;99.90;;;;;;5077312;28;20052;-59
2021/12/19 09:01:53;;;;;;;11.13;2.55;;;7.10;99.90;;;;;;5076792;28;20565;-59
2021/12/19 09:04:19;;;;;;;13.77;2.13;;;7.10;99.90;;;;;;5075884;28;20045;-59
2021/12/19 09:06:45;;;;;;;9.88;2.38;;;7.20;99.90;;;;;;5076147;28;20056;-59
2021/12/19 09:09:11;;;;;;;13.38;2.60;;;7.20;99.90;;;;;;5077100;28;20056;-59
2021/12/19 09:11:37;;;;;;;14.13;2.67;;;7.10;99.90;;;;;;5076711;28;20704;-59
2021/12/19 09:14:03;;;;;;;14.38;2.40;;;7.20;99.90;;;;;;5076880;28;20041;-59
2021/12/19 09:16:29;;;;;;;13.52;2.83;;;7.20;99.90;;;;;;5076926;28;20215;-59
2021/12/19 09:18:55;;;;;;;13.70;2.50;;;7.10;99.90;;;;;;5080644;28;20071;-59
2021/12/19 09:21:21;;;;;;;12.88;2.63;;;7.20;99.90;;;;;;5089125;28;20118;-58
2021/12/19 09:23:47;;;;;;;18.02;3.47;;;7.30;99.90;;;;;;5075119;28;20075;-59
2021/12/19 09:26:13;;;;;;;12.43;2.67;;;7.30;99.90;;;;;;5075504;28;20100;-59
2021/12/19 09:28:39;;;;;;;12.02;2.40;;;7.30;99.90;;;;;;5076172;28;20096;-59
2021/12/19 09:31:06;;;;;;;10.55;2.55;;;7.40;99.90;;;;;;5074528;28;20044;-58
2021/12/19 09:33:31;;;;;;;15.93;2.60;;;7.40;99.90;;;;;;5076587;28;20048;-58
2021/12/19 09:35:59;;;;;;;12.73;3.60;;;7.50;99.90;;;;;;5076123;28;20048;-58
2021/12/19 09:38:25;;;;;;;19.67;4.45;;;7.40;99.90;;;;;;5076667;28;20048;-58
2021/12/19 09:41:00;;;;;;;12.60;3.10;;;7.40;99.90;;;;;;5075826;28;20085;-58
2021/12/19 09:43:42;;;;;;;18.63;3.65;;;7.50;99.90;;;;;;5075544;28;20048;-59
2021/12/19 09:46:14;;;;;;;13.80;3.40;;;7.50;99.90;;;;;;5078520;28;20040;-58
2021/12/19 09:48:42;;;;;;;21.83;3.63;;;7.50;99.90;;;;;;5080971;28;20551;-58
2021/12/19 09:51:13;;;;;;;15.63;3.60;;;7.40;99.90;;;;;;5084947;28;20032;-58
2021/12/19 09:53:40;;;;;;;13.75;3.83;;;7.40;99.90;;;;;;5084132;28;20061;-58
2021/12/19 09:56:07;;;;;;;14.30;3.90;;;7.40;99.90;;;;;;5084256;28;20123;-60
2021/12/19 09:58:35;;;;;;;17.38;2.88;;;7.40;99.90;;;;;;5086510;28;20051;-59
2021/12/19 10:01:04;;;;;;;17.05;3.33;;;7.40;99.90;;;;;;5064846;28;20438;-59
2021/12/19 10:03:30;;;;;;;15.55;3.22;;;7.40;99.90;;;;;;5085320;28;20052;-59
2021/12/19 10:06:19;;;;;;;13.45;3.40;;;7.40;99.90;;;;;;5089348;28;20052;-59
2021/12/19 10:08:49;;;;;;;13.25;2.90;;;7.40;99.90;;;;;;5094110;28;20089;-59
2021/12/19 10:11:58;;;;;;;16.77;3.10;;;7.40;99.90;;;;;;5093714;28;20051;-59
2021/12/19 10:14:35;;;;;;;12.15;2.80;;;7.40;99.90;;;;;;5083934;28;20064;-59
2021/12/19 10:17:07;;;;;;;13.25;2.63;;;7.40;99.90;;;;;;5083483;28;20121;-60
2021/12/19 10:19:46;;;;;;;16.17;2.92;;;7.40;99.90;;;;;;5082175;28;20044;-59
2021/12/19 10:22:45;;;;;;;13.05;2.60;;;7.40;99.90;;;;;;5085014;28;20515;-59
2021/12/19 10:25:21;;;;;;;16.02;2.47;;;7.40;99.90;;;;;;5083895;28;20060;-59
2021/12/19 10:28:17;;;;;;;13.85;4.68;;;7.40;99.90;;;;;;5082763;28;20047;-59
2021/12/19 10:30:46;;;;;;;14.70;3.45;;;7.40;99.90;;;;;;5057044;28;20897;-60
2021/12/19 10:33:19;;;;;;;17.45;4.57;;;7.40;99.90;;;;;;5083724;28;20037;-60
2021/12/19 10:35:49;;;;;;;18.80;3.55;;;7.50;99.90;;;;;;5066385;28;20153;-59
2021/12/19 10:38:24;;;;;;;14.10;2.65;;;7.60;99.90;;;;;;5081449;28;20096;-60
2021/12/19 10:40:53;;;;;;;15.90;4.43;;;7.50;99.90;;;;;;5082094;28;20533;-59
2021/12/19 10:43:20;;;;;;;19.40;2.90;;;7.50;99.90;;;;;;5084441;28;20078;-59
2021/12/19 10:45:50;;;;;;;14.75;2.58;;;7.50;99.90;;;;;;5046151;28;20059;-59
2021/12/19 10:48:20;;;;;;;21.80;3.47;;;7.50;99.90;;;;;;5087312;28;20036;-59
2021/12/19 10:50:51;;;;;;;15.60;3.10;;;7.50;99.90;;;;;;5083308;28;20552;-59
2021/12/19 10:53:18;;;;;;;14.07;2.97;;;7.60;99.90;;;;;;5095093;28;20047;-59
2021/12/19 10:55:46;;;;;;;16.00;2.80;;;7.60;99.90;;;;;;5076674;28;20581;-59
2021/12/19 10:58:33;;;;;;;14.80;3.75;;;7.50;99.90;;;;;;5074591;28;20041;-60
2021/12/19 11:01:19;;;;;;;11.55;2.20;;;7.60;99.90;;;;;;5073673;28;20052;-60
2021/12/19 11:03:54;;;;;;;16.65;2.67;;;7.60;99.90;;;;;;5073834;28;20064;-60
2021/12/19 11:06:32;;;;;;;11.75;2.47;;;7.60;99.90;;;;;;5073269;28;20040;-59
2021/12/19 11:09:00;;;;;;;16.38;3.22;;;7.60;99.90;;;;;;5074007;28;20052;-59
2021/12/19 11:11:32;;;;;;;13.10;3.28;;;7.60;99.90;;;;;;5072806;28;20078;-60
2021/12/19 11:13:58;;;;;;;;;;;7.60;99.90;;;;;;5081883;28;20106;-60
2021/12/19 11:16:25;;;;;;;11.10;2.13;;;7.70;99.90;;;;;;5078180;28;19924;-59
2021/12/19 11:18:51;;;;;;;19.50;3.13;;;7.70;99.90;;;;;;5072708;28;20129;-59
2021/12/19 11:21:19;;;;;;;17.15;3.17;;;7.70;99.90;;;;;;5073306;28;20120;-59
2021/12/19 11:23:46;;;;;;;18.98;2.83;;;7.70;99.90;;;;;;5074207;28;20108;-60
2021/12/19 11:26:13;;;;;;;14.52;3.35;;;7.80;99.90;;;;;;5074331;28;20420;-60
2021/12/19 11:28:39;;;;;;;14.95;3.13;;;7.80;99.90;;;;;;5074182;28;20048;-60
2021/12/19 11:31:06;;;;;;;19.23;2.97;;;7.80;99.90;;;;;;5072629;28;20040;-60
2021/12/19 11:34:05;;;;;;;14.57;3.20;;;7.80;99.90;;;;;;5074490;28;20044;-59
2021/12/19 11:36:39;;;;;;;14.40;2.55;;;7.80;99.90;;;;;;5073720;28;20048;-60
2021/12/19 11:39:07;;;;;;;15.43;3.35;;;7.70;99.90;;;;;;5074537;28;20048;-59
2021/12/19 11:41:34;;;;;;;17.65;3.00;;;7.80;99.90;;;;;;5073770;28;20048;-59
2021/12/19 11:44:04;;;;;;;19.23;4.22;;;7.90;99.90;;;;;;5073751;28;20048;-59
2021/12/19 11:46:44;;;;;;;18.10;3.10;;;7.80;99.90;;;;;;5073218;28;20083;-59
2021/12/19 11:49:19;;;;;;;15.23;3.38;;;7.90;99.90;;;;;;5073692;28;20067;-59
2021/12/19 11:51:46;;;;;;;13.20;3.17;;;7.90;99.90;;;;;;5082333;28;20063;-59
2021/12/19 11:54:16;;;;;;;18.33;4.40;;;7.90;99.90;;;;;;5083699;28;20085;-60
2021/12/19 11:57:06;;;;;;;18.98;3.00;;;7.90;99.90;;;;;;5082561;28;20037;-60
2021/12/19 11:59:32;;;;;;;17.05;3.63;;;7.90;99.90;;;;;;5083336;28;20049;-60
2021/12/19 12:02:25;;;;;;;21.00;4.82;;;7.90;99.90;;;;;;5082194;28;20139;-59
2021/12/19 12:05:13;;;;;;;13.23;3.60;;;8.00;99.90;;;;;;5081296;28;20048;-59
2021/12/19 12:08:18;;;;;;;18.83;4.18;;;8.00;99.90;;;;;;5083987;28;20047;-60
2021/12/19 12:13:25;;;;;;;21.83;3.88;;;8.00;99.90;;;;;;5095023;28;20115;-60
2021/12/19 12:15:53;;;;;;;18.55;3.55;;;8.00;99.90;;;;;;5095508;28;20550;-59
2021/12/19 12:18:34;;;;;;;16.70;3.78;;;8.00;99.90;;;;;;5097814;28;20069;-60
2021/12/19 12:21:19;;;;;;;16.45;3.28;;;8.00;99.90;;;;;;5101510;28;20058;-59
2021/12/19 12:24:05;;;;;;;13.70;2.88;;;8.10;99.90;;;;;;5100555;28;20060;-60
2021/12/19 12:26:57;;;;;;;16.90;3.20;;;8.10;99.90;;;;;;5100983;28;20058;-60
2021/12/19 12:29:23;;;;;;;15.30;2.73;;;8.10;99.90;;;;;;5100116;28;20630;-60
2021/12/19 12:31:51;;;;;;;13.35;3.03;;;8.10;99.90;;;;;;5099563;28;20290;-59
2021/12/19 12:34:20;;;;;;;13.93;3.13;;;8.10;99.90;;;;;;5099590;28;20436;-60
2021/12/19 12:36:47;;;;;;;20.08;3.10;;;8.10;99.90;;;;;;5100394;28;20079;-60
2021/12/19 12:39:18;;;;;;;18.88;2.85;;;8.10;99.90;;;;;;5100615;28;20068;-61
2021/12/19 12:44:13;;;;;;;16.75;3.03;;;8.10;99.90;;;;;;5100320;28;20044;-60
2021/12/19 12:46:39;;;;;;;18.52;3.13;;;8.10;99.90;;;;;;5101020;28;20511;-60
2021/12/19 12:49:10;;;;;;;15.32;2.50;;;8.10;99.90;;;;;;5100022;28;20511;-60
2021/12/19 12:51:42;;;;;;;10.85;1.98;;;8.10;99.90;;;;;;5084965;28;20193;-60
2021/12/19 12:54:11;;;;;;;17.08;4.72;;;8.10;99.90;;;;;;5078431;28;20055;-60
2021/12/19 12:56:47;;;;;;;12.30;2.53;;;8.10;99.90;;;;;;5078890;28;20044;-60
2021/12/19 12:59:19;;;;;;;12.82;2.53;;;8.10;99.90;;;;;;5080186;28;20579;-60
2021/12/19 13:01:54;;;;;;;17.70;3.35;;;8.10;99.90;;;;;;5079786;28;20068;-60
2021/12/19 13:04:25;;;;;;;20.15;2.90;;;8.10;99.90;;;;;;5080008;28;20080;-60
2021/12/19 13:07:14;;;;;;;34.30;4.63;;;8.20;99.90;;;;;;5061300;28;20091;-60
2021/12/19 13:09:43;;;;;;;16.50;3.22;;;8.00;99.90;;;;;;5079719;28;20048;-60
2021/12/19 13:12:21;;;;;;;16.63;3.63;;;8.10;99.90;;;;;;5080034;28;20041;-60
2021/12/19 13:15:05;;;;;;;21.63;3.85;;;8.00;99.90;;;;;;5079247;28;20060;-61
2021/12/19 13:17:35;;;;;;;20.77;3.65;;;8.10;99.90;;;;;;5079885;28;20119;-60
2021/12/19 13:20:16;;;;;;;14.15;2.45;;;8.00;99.90;;;;;;5077406;28;20109;-60
2021/12/19 13:22:47;;;;;;;19.98;3.40;;;8.10;99.90;;;;;;5079520;28;20448;-60
2021/12/19 13:25:28;;;;;;;15.13;2.63;;;8.10;99.90;;;;;;5079888;28;20076;-60
2021/12/19 13:27:57;;;;;;;16.42;3.88;;;8.10;99.90;;;;;;5079289;28;20048;-61
2021/12/19 13:30:32;;;;;;;15.73;4.20;;;8.00;99.90;;;;;;5078716;28;20511;-60
2021/12/19 13:33:03;;;;;;;26.15;4.07;;;8.10;99.90;;;;;;5079368;28;20045;-60
2021/12/19 13:35:36;;;;;;;16.48;4.35;;;8.00;99.90;;;;;;5079264;28;20048;-60
2021/12/19 13:38:01;;;;;;;17.25;4.10;;;8.00;99.90;;;;;;5079729;28;20044;-59
2021/12/19 13:40:38;;;;;;;19.73;3.00;;;8.00;99.90;;;;;;5077516;28;20067;-60
2021/12/19 13:43:10;;;;;;;13.32;3.58;;;8.00;99.90;;;;;;5089482;28;20044;-60
2021/12/19 13:45:48;;;;;;;16.92;3.25;;;8.00;99.90;;;;;;5086765;28;20048;-60
2021/12/19 13:48:21;;;;;;;14.85;3.60;;;8.00;99.90;;;;;;5079539;28;20072;-60
2021/12/19 13:50:50;;;;;;;11.45;2.03;;;8.00;99.90;;;;;;5087041;28;20058;-61
2021/12/19 13:53:17;;;;;;;17.55;2.63;;;8.00;99.90;;;;;;5086202;28;20059;-60
2021/12/19 13:55:46;;;;;;;12.80;2.22;;;7.90;99.90;;;;;;5084637;28;20082;-60
2021/12/19 13:58:12;;;;;;;14.32;2.47;;;7.90;99.90;;;;;;5088967;28;20047;-60
2021/12/19 14:00:41;;;;;;;9.82;1.55;;;7.90;99.90;;;;;;5087782;28;20037;-61
2021/12/19 14:03:07;;;;;;;18.98;2.33;;;7.90;99.90;;;;;;5088649;28;20059;-61
2021/12/19 14:05:43;;;;;;;8.98;1.88;;;7.90;99.90;;;;;;5084412;28;20040;-60